메인 페이지
METAR-TAF:

METAR-TAF

공항 :

스톡홀름, 스웨덴

위도: 59-21N, 경도: 017-57E, 고도: 14m

현재 날씨관측

예보는 50분 전, 03:20시(UTC)에 발표되었습니다.
4kt북서풍과 북동풍을 오가는
온도 17°C
습도 88%
기압 1013 hPa
시정 10km 이상

METAR: ESSB 210320Z AUTO 36004KT 320V040 9999 OVC009/// 17/15 Q1013

시각: 06:10 (04:10 UTC)

예보

예보는 16 시간 40분 전, 11:30시(UTC)에 발표되었습니다.
예보 대상 시간: 20일 12시부터 20일 16시까지 (UTC)
9kt
시정 10km 이상
고도 4000ft 상공 구름 보통

TAF: ESSB 201130Z 2012/2016 36009KT 9999 SCT040

4,000개 이상의 공항 관측 자료 및 예보 (METAR 및 TAF 보고).

지도상에서 검색 가능한 기상관측소가 노란 점과 빨간 점으로 표시되어 있습니다.

기상관측소 명을 보려면 표시 위로 마우스를 이동하세요.

날씨 관측과 예보를 보려면 클릭하세요.

지도 변경 : 확대하려면 엑스 표시가 있는 녹색 버튼, 축소하려면 빼기 표시가 있는 녹색 버튼, 다음 페이지의 지도를 보려면 녹색 화살표를 클릭하세요.


METAR-TAF: